Diomidis — D5GL9 — position and weather

sailwx.info

Track history (hours):
 
Tides and Currents Weather Stations Pressure Air Temp Water Temp Dewpoint Dewpoint Depression Visibility Wind Speed Wind Dir Waves Ship Positions

Diomidis

Last reported at 2017-Sep-20 14:57 UTC. Time now 2017-Sep-21 18:07 UTC.
Position N 41°06' E 001°17'.

Length 199 m; draft 11.9 m.

Type: Cargo ship. MMSI: 636016499.

Date/timePositionNaut miles runAvg speedWind from/ knotsBaromVisibWave heightAir tempDewpointWater temp
2017-Sep-20 14:57N 41°06' E 001°17'  
2017-Sep-15 10:17N 40°56' E 001°39'512.7
2017-Sep-15 09:56N 40°54' E 001°45'512.7
2017-Sep-15 09:30N 40°52' E 001°52'612.6
2017-Sep-15 09:00N 40°50' E 001°59'612.6
2017-Sep-15 08:30N 40°48' E 002°07'612.5
2017-Sep-15 08:00N 40°46' E 002°15'612.4
2017-Sep-15 07:30N 40°43' E 002°23'612.2
2017-Sep-15 07:01N 40°42' E 002°30'612.0
2017-Sep-15 06:30N 40°39' E 002°38'611.9
2017-Sep-15 06:00N 40°37' E 002°45'612.1
2017-Sep-15 05:31N 40°35' E 002°52'612.3
2017-Sep-15 05:00N 40°33' E 002°60'612.8
2017-Sep-15 04:30N 40°31' E 003°08'712.9
2017-Sep-15 03:59N 40°28' E 003°16'26613.0
2017-Sep-14 07:28N 38°38' E 008°30'15912.9
2017-Sep-13 19:10N 37°45' E 011°41'212.9
2017-Sep-13 19:00N 37°44' E 011°43'1812.8
2017-Sep-13 17:33N 37°34' E 012°03'112.8
2017-Sep-13 17:28N 37°34' E 012°04'612.7
2017-Sep-13 17:00N 37°31' E 012°11'612.4
2017-Sep-13 16:29N 37°28' E 012°18'612.2
2017-Sep-13 15:59N 37°25' E 012°25'712.7
2017-Sep-13 15:26N 37°22' E 012°33'512.8
2017-Sep-13 15:00N 37°19' E 012°39'612.6
2017-Sep-13 14:30N 37°16' E 012°45'712.5
2017-Sep-13 13:57N 37°12' E 012°53'612.6
2017-Sep-13 13:30N 37°10' E 012°59'712.7
2017-Sep-13 13:00N 37°06' E 013°06'912.7
2017-Sep-13 12:16N 37°01' E 013°16'3212.3
2017-Sep-13 09:41N 36°46' E 013°51'212.1
2017-Sep-13 09:30N 36°45' E 013°53'612.2
2017-Sep-13 09:00N 36°42' E 013°60'612.6
2017-Sep-13 08:30N 36°40' E 014°07'612.8
2017-Sep-13 08:00N 36°37' E 014°14'612.7
2017-Sep-13 07:30N 36°35' E 014°22'612.6
2017-Sep-13 07:01N 36°32' E 014°29'612.6
2017-Sep-13 06:30N 36°29' E 014°36'612.4
2017-Sep-13 06:00N 36°27' E 014°43'612.3
2017-Sep-13 05:30N 36°26' E 014°51'612.4
2017-Sep-13 05:00N 36°26' E 014°58'612.5
2017-Sep-13 04:30N 36°26' E 015°06'612.9
2017-Sep-13 04:01N 36°25' E 015°14'713.2
2017-Sep-13 03:31N 36°26' E 015°22'713.3
2017-Sep-13 03:00N 36°26' E 015°31'1113.2
2017-Sep-13 02:09N 36°26' E 015°45'213.1
2017-Sep-13 02:00N 36°27' E 015°47'713.1
2017-Sep-13 01:30N 36°27' E 015°55'36311.6
2017-Sep-11 18:04N 36°43' E 023°27'412.4
2017-Sep-11 17:46N 36°47' E 023°29'612.4
2017-Sep-11 17:19N 36°52' E 023°32'412.2
2017-Sep-11 17:00N 36°54' E 023°35'612.1
2017-Sep-11 16:30N 36°59' E 023°40'611.9
2017-Sep-11 16:00N 37°04' E 023°44'612.0
2017-Sep-11 15:30N 37°09' E 023°48'911.8
2017-Sep-11 14:44N 37°17' E 023°53'311.7
2017-Sep-11 14:30N 37°20' E 023°55'2912.1
2017-Sep-11 12:07N 37°45' E 024°13'812.9
2017-Sep-11 11:29N 37°49' E 024°22'12612.8
2017-Sep-11 01:39N 39°40' E 025°39'213.1
2017-Sep-11 01:28N 39°42' E 025°40'613.3
2017-Sep-11 01:00N 39°48' E 025°43'813.7
2017-Sep-11 00:27N 39°54' E 025°49'4911.8
2017-Sep-10 20:18N 40°23' E 026°40'3 9.5
2017-Sep-10 20:00N 40°25' E 026°43'1210.2
2017-Sep-10 18:49N 40°31' E 026°57'3 8.3
2017-Sep-10 18:28N 40°33' E 027°00'9 9.1
2017-Sep-10 17:29N 40°36' E 027°11'  
Track history (hours):
 
Tides and Currents Weather Stations Pressure Air Temp Water Temp Dewpoint Dewpoint Depression Visibility Wind Speed Wind Dir Waves Ship Positions

Diomidis

Last reported at 2017-Sep-20 14:57 UTC. Time now 2017-Sep-21 18:07 UTC.
Position N 41°06' E 001°17'.

Length 199 m; draft 11.9 m.

Type: Cargo ship. MMSI: 636016499.

Date/timePositionNaut miles runAvg speedWind from/ knotsBaromVisibWave heightAir tempDewpointWater temp
2017-Sep-20 14:57N 41°06' E 001°17'  
2017-Sep-15 10:17N 40°56' E 001°39'512.7
2017-Sep-15 09:56N 40°54' E 001°45'512.7
2017-Sep-15 09:30N 40°52' E 001°52'612.6
2017-Sep-15 09:00N 40°50' E 001°59'612.6
2017-Sep-15 08:30N 40°48' E 002°07'612.5
2017-Sep-15 08:00N 40°46' E 002°15'612.4
2017-Sep-15 07:30N 40°43' E 002°23'612.2
2017-Sep-15 07:01N 40°42' E 002°30'612.0
2017-Sep-15 06:30N 40°39' E 002°38'611.9
2017-Sep-15 06:00N 40°37' E 002°45'612.1
2017-Sep-15 05:31N 40°35' E 002°52'612.3
2017-Sep-15 05:00N 40°33' E 002°60'612.8
2017-Sep-15 04:30N 40°31' E 003°08'712.9
2017-Sep-15 03:59N 40°28' E 003°16'26613.0
2017-Sep-14 07:28N 38°38' E 008°30'15912.9
2017-Sep-13 19:10N 37°45' E 011°41'212.9
2017-Sep-13 19:00N 37°44' E 011°43'1812.8
2017-Sep-13 17:33N 37°34' E 012°03'112.8
2017-Sep-13 17:28N 37°34' E 012°04'612.7
2017-Sep-13 17:00N 37°31' E 012°11'612.4
2017-Sep-13 16:29N 37°28' E 012°18'612.2
2017-Sep-13 15:59N 37°25' E 012°25'712.7
2017-Sep-13 15:26N 37°22' E 012°33'512.8
2017-Sep-13 15:00N 37°19' E 012°39'612.6
2017-Sep-13 14:30N 37°16' E 012°45'712.5
2017-Sep-13 13:57N 37°12' E 012°53'612.6
2017-Sep-13 13:30N 37°10' E 012°59'712.7
2017-Sep-13 13:00N 37°06' E 013°06'912.7
2017-Sep-13 12:16N 37°01' E 013°16'3212.3
2017-Sep-13 09:41N 36°46' E 013°51'212.1
2017-Sep-13 09:30N 36°45' E 013°53'612.2
2017-Sep-13 09:00N 36°42' E 013°60'612.6
2017-Sep-13 08:30N 36°40' E 014°07'612.8
2017-Sep-13 08:00N 36°37' E 014°14'612.7
2017-Sep-13 07:30N 36°35' E 014°22'612.6
2017-Sep-13 07:01N 36°32' E 014°29'612.6
2017-Sep-13 06:30N 36°29' E 014°36'612.4
2017-Sep-13 06:00N 36°27' E 014°43'612.3
2017-Sep-13 05:30N 36°26' E 014°51'612.4
2017-Sep-13 05:00N 36°26' E 014°58'612.5
2017-Sep-13 04:30N 36°26' E 015°06'612.9
2017-Sep-13 04:01N 36°25' E 015°14'713.2
2017-Sep-13 03:31N 36°26' E 015°22'713.3
2017-Sep-13 03:00N 36°26' E 015°31'1113.2
2017-Sep-13 02:09N 36°26' E 015°45'213.1
2017-Sep-13 02:00N 36°27' E 015°47'713.1
2017-Sep-13 01:30N 36°27' E 015°55'36311.6
2017-Sep-11 18:04N 36°43' E 023°27'412.4
2017-Sep-11 17:46N 36°47' E 023°29'612.4
2017-Sep-11 17:19N 36°52' E 023°32'412.2
2017-Sep-11 17:00N 36°54' E 023°35'612.1
2017-Sep-11 16:30N 36°59' E 023°40'611.9
2017-Sep-11 16:00N 37°04' E 023°44'612.0
2017-Sep-11 15:30N 37°09' E 023°48'911.8
2017-Sep-11 14:44N 37°17' E 023°53'311.7
2017-Sep-11 14:30N 37°20' E 023°55'2912.1
2017-Sep-11 12:07N 37°45' E 024°13'812.9
2017-Sep-11 11:29N 37°49' E 024°22'12612.8
2017-Sep-11 01:39N 39°40' E 025°39'213.1
2017-Sep-11 01:28N 39°42' E 025°40'613.3
2017-Sep-11 01:00N 39°48' E 025°43'813.7
2017-Sep-11 00:27N 39°54' E 025°49'4911.8
2017-Sep-10 20:18N 40°23' E 026°40'3 9.5
2017-Sep-10 20:00N 40°25' E 026°43'1210.2
2017-Sep-10 18:49N 40°31' E 026°57'3 8.3
2017-Sep-10 18:28N 40°33' E 027°00'9 9.1
2017-Sep-10 17:29N 40°36' E 027°11'  

Dump ship's entire track history